sensor_id;sensor_type;location;lat;lon;timestamp;P1;durP1;ratioP1;P2;durP2;ratioP2
2966;SDS011;1493;51.496;7.210;2024-01-15T00:02:24;35.37;;;18.73;;
2966;SDS011;1493;51.496;7.210;2024-01-15T00:04:51;39.33;;;20.97;;
2966;SDS011;1493;51.496;7.210;2024-01-15T00:07:18;39.97;;;19.20;;
2966;SDS011;1493;51.496;7.210;2024-01-15T00:09:45;33.37;;;18.47;;
2966;SDS011;1493;51.496;7.210;2024-01-15T00:12:11;40.60;;;20.50;;
2966;SDS011;1493;51.496;7.210;2024-01-15T00:14:38;38.90;;;19.90;;
2966;SDS011;1493;51.496;7.210;2024-01-15T00:17:06;43.10;;;20.70;;
2966;SDS011;1493;51.496;7.210;2024-01-15T00:19:33;38.30;;;20.30;;
2966;SDS011;1493;51.496;7.210;2024-01-15T00:22:00;39.17;;;21.00;;
2966;SDS011;1493;51.496;7.210;2024-01-15T00:24:27;36.60;;;19.37;;
2966;SDS011;1493;51.496;7.210;2024-01-15T00:26:53;37.20;;;21.23;;
2966;SDS011;1493;51.496;7.210;2024-01-15T00:29:20;37.50;;;18.50;;
2966;SDS011;1493;51.496;7.210;2024-01-15T00:31:47;34.23;;;18.00;;
2966;SDS011;1493;51.496;7.210;2024-01-15T00:34:15;40.27;;;19.87;;
2966;SDS011;1493;51.496;7.210;2024-01-15T00:36:42;41.00;;;21.70;;
2966;SDS011;1493;51.496;7.210;2024-01-15T00:39:09;36.20;;;19.30;;
2966;SDS011;1493;51.496;7.210;2024-01-15T00:41:36;41.77;;;22.17;;
2966;SDS011;1493;51.496;7.210;2024-01-15T00:44:03;31.80;;;18.40;;
2966;SDS011;1493;51.496;7.210;2024-01-15T00:46:30;36.97;;;16.97;;
2966;SDS011;1493;51.496;7.210;2024-01-15T00:48:57;33.57;;;18.57;;
2966;SDS011;1493;51.496;7.210;2024-01-15T00:51:25;38.47;;;19.00;;
2966;SDS011;1493;51.496;7.210;2024-01-15T00:53:52;29.30;;;18.00;;
2966;SDS011;1493;51.496;7.210;2024-01-15T00:56:18;32.60;;;17.83;;
2966;SDS011;1493;51.496;7.210;2024-01-15T00:58:45;33.87;;;19.80;;
2966;SDS011;1493;51.496;7.210;2024-01-15T01:01:12;36.83;;;18.80;;
2966;SDS011;1493;51.496;7.210;2024-01-15T01:03:39;30.83;;;18.70;;
2966;SDS011;1493;51.496;7.210;2024-01-15T01:06:05;41.90;;;20.57;;
2966;SDS011;1493;51.496;7.210;2024-01-15T01:08:34;38.13;;;20.20;;
2966;SDS011;1493;51.496;7.210;2024-01-15T01:11:00;39.37;;;19.77;;
2966;SDS011;1493;51.496;7.210;2024-01-15T01:13:27;29.37;;;18.20;;
2966;SDS011;1493;51.496;7.210;2024-01-15T01:15:54;30.70;;;17.93;;
2966;SDS011;1493;51.496;7.210;2024-01-15T01:18:21;36.40;;;18.33;;
2966;SDS011;1493;51.496;7.210;2024-01-15T01:20:47;31.67;;;17.00;;
2966;SDS011;1493;51.496;7.210;2024-01-15T01:23:14;30.33;;;16.37;;
2966;SDS011;1493;51.496;7.210;2024-01-15T01:25:42;37.73;;;17.97;;
2966;SDS011;1493;51.496;7.210;2024-01-15T01:28:11;32.07;;;18.50;;
2966;SDS011;1493;51.496;7.210;2024-01-15T01:30:38;28.10;;;17.97;;
2966;SDS011;1493;51.496;7.210;2024-01-15T01:33:04;25.90;;;16.00;;
2966;SDS011;1493;51.496;7.210;2024-01-15T01:35:31;37.57;;;17.70;;
2966;SDS011;1493;51.496;7.210;2024-01-15T01:37:58;23.47;;;14.87;;
2966;SDS011;1493;51.496;7.210;2024-01-15T01:40:25;26.40;;;15.13;;
2966;SDS011;1493;51.496;7.210;2024-01-15T01:42:53;27.33;;;15.63;;
2966;SDS011;1493;51.496;7.210;2024-01-15T01:45:20;29.27;;;16.07;;
2966;SDS011;1493;51.496;7.210;2024-01-15T01:47:46;34.73;;;15.90;;
2966;SDS011;1493;51.496;7.210;2024-01-15T01:50:13;25.33;;;14.63;;
2966;SDS011;1493;51.496;7.210;2024-01-15T01:52:41;25.03;;;16.17;;
2966;SDS011;1493;51.496;7.210;2024-01-15T01:55:08;30.97;;;15.97;;
2966;SDS011;1493;51.496;7.210;2024-01-15T01:57:36;26.87;;;15.83;;
2966;SDS011;1493;51.496;7.210;2024-01-15T02:00:05;26.87;;;15.53;;
2966;SDS011;1493;51.496;7.210;2024-01-15T02:02:34;21.47;;;15.40;;
2966;SDS011;1493;51.496;7.210;2024-01-15T02:05:01;28.37;;;14.90;;
2966;SDS011;1493;51.496;7.210;2024-01-15T02:07:30;28.23;;;15.67;;
2966;SDS011;1493;51.496;7.210;2024-01-15T02:09:58;26.13;;;15.33;;
2966;SDS011;1493;51.496;7.210;2024-01-15T02:12:24;26.77;;;15.80;;
2966;SDS011;1493;51.496;7.210;2024-01-15T02:14:51;25.80;;;15.30;;
2966;SDS011;1493;51.496;7.210;2024-01-15T02:17:22;23.10;;;15.60;;
2966;SDS011;1493;51.496;7.210;2024-01-15T02:19:49;31.47;;;16.57;;
2966;SDS011;1493;51.496;7.210;2024-01-15T02:22:16;25.33;;;15.10;;
2966;SDS011;1493;51.496;7.210;2024-01-15T02:24:44;27.30;;;15.13;;
2966;SDS011;1493;51.496;7.210;2024-01-15T02:27:11;27.97;;;16.03;;
2966;SDS011;1493;51.496;7.210;2024-01-15T02:29:38;22.70;;;13.93;;
2966;SDS011;1493;51.496;7.210;2024-01-15T02:32:05;22.77;;;13.83;;
2966;SDS011;1493;51.496;7.210;2024-01-15T02:34:32;27.33;;;15.17;;
2966;SDS011;1493;51.496;7.210;2024-01-15T02:36:59;24.70;;;14.87;;
2966;SDS011;1493;51.496;7.210;2024-01-15T02:39:26;20.53;;;13.73;;
2966;SDS011;1493;51.496;7.210;2024-01-15T02:41:55;23.70;;;15.07;;
2966;SDS011;1493;51.496;7.210;2024-01-15T02:44:22;22.10;;;13.60;;
2966;SDS011;1493;51.496;7.210;2024-01-15T02:46:49;24.80;;;14.60;;
2966;SDS011;1493;51.496;7.210;2024-01-15T02:49:16;20.90;;;13.20;;
2966;SDS011;1493;51.496;7.210;2024-01-15T02:51:43;25.50;;;15.07;;
2966;SDS011;1493;51.496;7.210;2024-01-15T02:54:10;27.10;;;15.73;;
2966;SDS011;1493;51.496;7.210;2024-01-15T02:56:36;26.07;;;14.43;;
2966;SDS011;1493;51.496;7.210;2024-01-15T02:59:04;21.93;;;12.53;;
2966;SDS011;1493;51.496;7.210;2024-01-15T03:01:31;21.93;;;12.23;;
2966;SDS011;1493;51.496;7.210;2024-01-15T03:03:58;24.70;;;12.50;;
2966;SDS011;1493;51.496;7.210;2024-01-15T03:06:25;21.80;;;13.53;;
2966;SDS011;1493;51.496;7.210;2024-01-15T03:08:51;20.50;;;14.10;;
2966;SDS011;1493;51.496;7.210;2024-01-15T03:11:18;17.60;;;11.23;;
2966;SDS011;1493;51.496;7.210;2024-01-15T03:13:45;25.70;;;14.03;;
2966;SDS011;1493;51.496;7.210;2024-01-15T03:16:13;21.60;;;13.03;;
2966;SDS011;1493;51.496;7.210;2024-01-15T03:18:40;27.60;;;11.80;;
2966;SDS011;1493;51.496;7.210;2024-01-15T03:21:07;23.83;;;10.87;;
2966;SDS011;1493;51.496;7.210;2024-01-15T03:23:33;22.13;;;12.40;;
2966;SDS011;1493;51.496;7.210;2024-01-15T03:26:00;22.50;;;11.63;;
2966;SDS011;1493;51.496;7.210;2024-01-15T03:28:27;16.50;;;10.67;;
2966;SDS011;1493;51.496;7.210;2024-01-15T03:30:55;23.53;;;12.07;;
2966;SDS011;1493;51.496;7.210;2024-01-15T03:33:23;19.20;;;10.97;;
2966;SDS011;1493;51.496;7.210;2024-01-15T03:35:50;16.70;;;10.57;;
2966;SDS011;1493;51.496;7.210;2024-01-15T03:38:17;18.50;;;10.43;;
2966;SDS011;1493;51.496;7.210;2024-01-15T03:40:43;23.30;;;10.60;;
2966;SDS011;1493;51.496;7.210;2024-01-15T03:43:10;16.87;;;9.97;;
2966;SDS011;1493;51.496;7.210;2024-01-15T03:45:37;15.53;;;9.47;;
2966;SDS011;1493;51.496;7.210;2024-01-15T03:48:04;15.90;;;9.53;;
2966;SDS011;1493;51.496;7.210;2024-01-15T03:50:32;17.33;;;9.90;;
2966;SDS011;1493;51.496;7.210;2024-01-15T03:52:59;20.23;;;9.73;;
2966;SDS011;1493;51.496;7.210;2024-01-15T03:55:26;14.70;;;8.77;;
2966;SDS011;1493;51.496;7.210;2024-01-15T03:57:53;19.43;;;11.67;;
2966;SDS011;1493;51.496;7.210;2024-01-15T04:00:20;13.57;;;9.97;;
2966;SDS011;1493;51.496;7.210;2024-01-15T04:02:47;19.63;;;9.60;;
2966;SDS011;1493;51.496;7.210;2024-01-15T04:05:14;19.00;;;9.77;;
2966;SDS011;1493;51.496;7.210;2024-01-15T04:07:42;18.63;;;8.97;;
2966;SDS011;1493;51.496;7.210;2024-01-15T04:10:09;12.43;;;8.03;;
2966;SDS011;1493;51.496;7.210;2024-01-15T04:12:35;14.90;;;8.03;;
2966;SDS011;1493;51.496;7.210;2024-01-15T04:15:03;13.80;;;8.50;;
2966;SDS011;1493;51.496;7.210;2024-01-15T04:17:30;17.47;;;9.47;;
2966;SDS011;1493;51.496;7.210;2024-01-15T04:19:57;14.83;;;8.90;;
2966;SDS011;1493;51.496;7.210;2024-01-15T04:22:26;9.90;;;6.90;;
2966;SDS011;1493;51.496;7.210;2024-01-15T04:24:54;12.90;;;8.70;;
2966;SDS011;1493;51.496;7.210;2024-01-15T04:27:21;20.23;;;8.83;;
2966;SDS011;1493;51.496;7.210;2024-01-15T04:29:48;13.10;;;7.90;;
2966;SDS011;1493;51.496;7.210;2024-01-15T04:32:15;16.37;;;7.70;;
2966;SDS011;1493;51.496;7.210;2024-01-15T04:34:42;12.27;;;8.80;;
2966;SDS011;1493;51.496;7.210;2024-01-15T04:37:08;15.97;;;8.53;;
2966;SDS011;1493;51.496;7.210;2024-01-15T04:39:35;13.63;;;8.80;;
2966;SDS011;1493;51.496;7.210;2024-01-15T04:42:04;22.13;;;9.60;;
2966;SDS011;1493;51.496;7.210;2024-01-15T04:44:31;20.20;;;9.40;;
2966;SDS011;1493;51.496;7.210;2024-01-15T04:46:57;16.10;;;10.27;;
2966;SDS011;1493;51.496;7.210;2024-01-15T04:49:24;24.07;;;12.70;;
2966;SDS011;1493;51.496;7.210;2024-01-15T04:51:52;16.10;;;9.43;;
2966;SDS011;1493;51.496;7.210;2024-01-15T04:54:19;19.10;;;10.87;;
2966;SDS011;1493;51.496;7.210;2024-01-15T04:56:45;16.93;;;9.67;;
2966;SDS011;1493;51.496;7.210;2024-01-15T04:59:14;16.07;;;9.40;;
2966;SDS011;1493;51.496;7.210;2024-01-15T05:01:41;18.43;;;10.77;;
2966;SDS011;1493;51.496;7.210;2024-01-15T05:04:08;19.73;;;11.30;;
2966;SDS011;1493;51.496;7.210;2024-01-15T05:06:35;14.23;;;9.03;;
2966;SDS011;1493;51.496;7.210;2024-01-15T05:09:01;19.47;;;9.77;;
2966;SDS011;1493;51.496;7.210;2024-01-15T05:11:29;17.80;;;9.37;;
2966;SDS011;1493;51.496;7.210;2024-01-15T05:13:55;19.90;;;9.90;;
2966;SDS011;1493;51.496;7.210;2024-01-15T05:16:24;20.23;;;10.50;;
2966;SDS011;1493;51.496;7.210;2024-01-15T05:18:50;17.27;;;10.77;;
2966;SDS011;1493;51.496;7.210;2024-01-15T05:21:17;17.40;;;12.47;;
2966;SDS011;1493;51.496;7.210;2024-01-15T05:23:44;20.60;;;11.40;;
2966;SDS011;1493;51.496;7.210;2024-01-15T05:26:11;19.67;;;10.17;;
2966;SDS011;1493;51.496;7.210;2024-01-15T05:28:37;13.63;;;9.57;;
2966;SDS011;1493;51.496;7.210;2024-01-15T05:31:04;19.10;;;11.20;;
2966;SDS011;1493;51.496;7.210;2024-01-15T05:33:32;14.13;;;9.60;;
2966;SDS011;1493;51.496;7.210;2024-01-15T05:35:59;13.03;;;9.17;;
2966;SDS011;1493;51.496;7.210;2024-01-15T05:38:27;16.10;;;9.00;;
2966;SDS011;1493;51.496;7.210;2024-01-15T05:40:54;14.30;;;8.83;;
2966;SDS011;1493;51.496;7.210;2024-01-15T05:43:20;19.13;;;9.67;;
2966;SDS011;1493;51.496;7.210;2024-01-15T05:45:47;14.00;;;9.87;;
2966;SDS011;1493;51.496;7.210;2024-01-15T05:48:14;13.57;;;8.70;;
2966;SDS011;1493;51.496;7.210;2024-01-15T05:50:42;13.30;;;9.33;;
2966;SDS011;1493;51.496;7.210;2024-01-15T05:53:09;19.50;;;9.60;;
2966;SDS011;1493;51.496;7.210;2024-01-15T05:55:36;17.27;;;10.70;;
2966;SDS011;1493;51.496;7.210;2024-01-15T05:58:03;17.60;;;10.77;;
2966;SDS011;1493;51.496;7.210;2024-01-15T06:00:30;14.03;;;9.97;;
2966;SDS011;1493;51.496;7.210;2024-01-15T06:02:58;14.20;;;9.13;;
2966;SDS011;1493;51.496;7.210;2024-01-15T06:05:24;19.13;;;8.93;;
2966;SDS011;1493;51.496;7.210;2024-01-15T06:07:52;17.87;;;9.90;;
2966;SDS011;1493;51.496;7.210;2024-01-15T06:10:19;12.27;;;9.70;;
2966;SDS011;1493;51.496;7.210;2024-01-15T06:12:46;14.27;;;8.77;;
2966;SDS011;1493;51.496;7.210;2024-01-15T06:15:13;14.63;;;9.10;;
2966;SDS011;1493;51.496;7.210;2024-01-15T06:17:40;17.80;;;10.07;;
2966;SDS011;1493;51.496;7.210;2024-01-15T06:20:07;16.67;;;10.10;;
2966;SDS011;1493;51.496;7.210;2024-01-15T06:22:35;15.07;;;10.83;;
2966;SDS011;1493;51.496;7.210;2024-01-15T06:25:06;18.23;;;10.20;;
2966;SDS011;1493;51.496;7.210;2024-01-15T06:27:34;18.43;;;11.00;;
2966;SDS011;1493;51.496;7.210;2024-01-15T06:30:01;18.40;;;10.93;;
2966;SDS011;1493;51.496;7.210;2024-01-15T06:32:28;14.70;;;10.53;;
2966;SDS011;1493;51.496;7.210;2024-01-15T06:34:55;14.37;;;10.37;;
2966;SDS011;1493;51.496;7.210;2024-01-15T06:37:22;14.37;;;9.53;;
2966;SDS011;1493;51.496;7.210;2024-01-15T06:39:49;16.20;;;9.13;;
2966;SDS011;1493;51.496;7.210;2024-01-15T06:42:18;19.33;;;10.20;;
2966;SDS011;1493;51.496;7.210;2024-01-15T06:44:47;14.83;;;8.47;;
2966;SDS011;1493;51.496;7.210;2024-01-15T06:47:13;12.67;;;7.60;;
2966;SDS011;1493;51.496;7.210;2024-01-15T06:49:42;18.53;;;9.33;;
2966;SDS011;1493;51.496;7.210;2024-01-15T06:52:10;15.07;;;9.20;;
2966;SDS011;1493;51.496;7.210;2024-01-15T06:54:37;11.73;;;8.97;;
2966;SDS011;1493;51.496;7.210;2024-01-15T06:57:05;12.07;;;8.80;;
2966;SDS011;1493;51.496;7.210;2024-01-15T06:59:33;15.43;;;9.00;;
2966;SDS011;1493;51.496;7.210;2024-01-15T07:02:00;14.03;;;8.57;;
2966;SDS011;1493;51.496;7.210;2024-01-15T07:04:27;15.10;;;9.40;;
2966;SDS011;1493;51.496;7.210;2024-01-15T07:06:54;12.20;;;8.90;;
2966;SDS011;1493;51.496;7.210;2024-01-15T07:09:21;16.20;;;8.60;;
2966;SDS011;1493;51.496;7.210;2024-01-15T07:11:48;11.70;;;7.60;;
2966;SDS011;1493;51.496;7.210;2024-01-15T07:14:15;13.20;;;9.10;;
2966;SDS011;1493;51.496;7.210;2024-01-15T07:16:43;12.77;;;7.23;;
2966;SDS011;1493;51.496;7.210;2024-01-15T07:19:09;11.47;;;7.80;;
2966;SDS011;1493;51.496;7.210;2024-01-15T07:21:36;12.57;;;7.40;;
2966;SDS011;1493;51.496;7.210;2024-01-15T07:24:04;12.73;;;7.80;;
2966;SDS011;1493;51.496;7.210;2024-01-15T07:26:31;13.47;;;8.47;;
2966;SDS011;1493;51.496;7.210;2024-01-15T07:28:58;12.13;;;7.10;;
2966;SDS011;1493;51.496;7.210;2024-01-15T07:31:25;10.03;;;6.63;;
2966;SDS011;1493;51.496;7.210;2024-01-15T07:33:54;11.10;;;7.23;;
2966;SDS011;1493;51.496;7.210;2024-01-15T07:36:21;9.90;;;6.83;;
2966;SDS011;1493;51.496;7.210;2024-01-15T07:38:47;11.23;;;6.43;;
2966;SDS011;1493;51.496;7.210;2024-01-15T07:41:14;8.60;;;6.30;;
2966;SDS011;1493;51.496;7.210;2024-01-15T07:43:41;9.33;;;6.20;;
2966;SDS011;1493;51.496;7.210;2024-01-15T07:46:08;11.20;;;6.73;;
2966;SDS011;1493;51.496;7.210;2024-01-15T07:48:34;15.23;;;4.80;;
2966;SDS011;1493;51.496;7.210;2024-01-15T07:51:03;9.33;;;5.50;;
2966;SDS011;1493;51.496;7.210;2024-01-15T07:53:30;10.23;;;6.43;;
2966;SDS011;1493;51.496;7.210;2024-01-15T07:55:57;9.43;;;6.47;;
2966;SDS011;1493;51.496;7.210;2024-01-15T07:58:23;7.90;;;6.37;;
2966;SDS011;1493;51.496;7.210;2024-01-15T08:00:50;12.33;;;7.37;;
2966;SDS011;1493;51.496;7.210;2024-01-15T08:03:17;8.23;;;6.20;;
2966;SDS011;1493;51.496;7.210;2024-01-15T08:05:44;7.50;;;5.07;;
2966;SDS011;1493;51.496;7.210;2024-01-15T08:08:14;8.53;;;4.60;;
2966;SDS011;1493;51.496;7.210;2024-01-15T08:10:43;6.00;;;4.70;;
2966;SDS011;1493;51.496;7.210;2024-01-15T08:13:11;7.73;;;4.67;;
2966;SDS011;1493;51.496;7.210;2024-01-15T08:15:37;11.97;;;5.50;;
2966;SDS011;1493;51.496;7.210;2024-01-15T08:18:04;5.80;;;4.70;;
2966;SDS011;1493;51.496;7.210;2024-01-15T08:20:31;11.57;;;4.60;;
2966;SDS011;1493;51.496;7.210;2024-01-15T08:22:58;10.10;;;4.50;;
2966;SDS011;1493;51.496;7.210;2024-01-15T08:25:26;11.30;;;4.80;;
2966;SDS011;1493;51.496;7.210;2024-01-15T08:27:53;9.60;;;6.33;;
2966;SDS011;1493;51.496;7.210;2024-01-15T08:30:20;8.03;;;6.40;;
2966;SDS011;1493;51.496;7.210;2024-01-15T08:32:52;10.90;;;5.80;;
2966;SDS011;1493;51.496;7.210;2024-01-15T08:35:19;8.70;;;7.47;;
2966;SDS011;1493;51.496;7.210;2024-01-15T08:37:47;10.57;;;7.10;;
2966;SDS011;1493;51.496;7.210;2024-01-15T08:40:14;13.77;;;8.80;;
2966;SDS011;1493;51.496;7.210;2024-01-15T08:42:43;11.60;;;9.13;;
2966;SDS011;1493;51.496;7.210;2024-01-15T08:45:10;12.60;;;8.90;;
2966;SDS011;1493;51.496;7.210;2024-01-15T08:47:37;15.57;;;9.93;;
2966;SDS011;1493;51.496;7.210;2024-01-15T08:50:05;11.40;;;8.33;;
2966;SDS011;1493;51.496;7.210;2024-01-15T08:52:34;12.93;;;8.93;;
2966;SDS011;1493;51.496;7.210;2024-01-15T08:55:04;11.17;;;8.73;;
2966;SDS011;1493;51.496;7.210;2024-01-15T08:57:32;13.40;;;10.50;;
2966;SDS011;1493;51.496;7.210;2024-01-15T09:00:00;14.10;;;10.57;;
2966;SDS011;1493;51.496;7.210;2024-01-15T09:02:28;14.27;;;10.50;;
2966;SDS011;1493;51.496;7.210;2024-01-15T09:04:55;15.33;;;10.73;;
2966;SDS011;1493;51.496;7.210;2024-01-15T09:07:22;14.23;;;10.77;;
2966;SDS011;1493;51.496;7.210;2024-01-15T09:09:50;16.47;;;11.47;;
2966;SDS011;1493;51.496;7.210;2024-01-15T09:12:17;17.23;;;12.60;;
2966;SDS011;1493;51.496;7.210;2024-01-15T09:14:45;15.97;;;11.60;;
2966;SDS011;1493;51.496;7.210;2024-01-15T09:17:14;20.43;;;13.67;;
2966;SDS011;1493;51.496;7.210;2024-01-15T09:19:40;24.13;;;14.70;;
2966;SDS011;1493;51.496;7.210;2024-01-15T09:22:14;19.30;;;14.47;;
2966;SDS011;1493;51.496;7.210;2024-01-15T09:24:43;17.67;;;12.17;;
2966;SDS011;1493;51.496;7.210;2024-01-15T09:27:10;18.67;;;14.03;;
2966;SDS011;1493;51.496;7.210;2024-01-15T09:29:40;16.03;;;12.63;;
2966;SDS011;1493;51.496;7.210;2024-01-15T09:32:09;18.40;;;14.20;;
2966;SDS011;1493;51.496;7.210;2024-01-15T09:34:37;16.80;;;12.67;;
2966;SDS011;1493;51.496;7.210;2024-01-15T09:37:04;20.60;;;14.00;;
2966;SDS011;1493;51.496;7.210;2024-01-15T09:39:31;22.13;;;13.53;;
2966;SDS011;1493;51.496;7.210;2024-01-15T09:41:58;18.60;;;11.73;;
2966;SDS011;1493;51.496;7.210;2024-01-15T09:44:25;13.47;;;10.17;;
2966;SDS011;1493;51.496;7.210;2024-01-15T09:46:54;53.80;;;29.17;;
2966;SDS011;1493;51.496;7.210;2024-01-15T09:49:24;16.83;;;11.77;;
2966;SDS011;1493;51.496;7.210;2024-01-15T09:51:52;15.27;;;10.53;;
2966;SDS011;1493;51.496;7.210;2024-01-15T09:54:20;17.40;;;11.00;;
2966;SDS011;1493;51.496;7.210;2024-01-15T09:56:47;15.33;;;10.33;;
2966;SDS011;1493;51.496;7.210;2024-01-15T09:59:14;15.40;;;10.87;;
2966;SDS011;1493;51.496;7.210;2024-01-15T10:01:42;16.83;;;10.80;;
2966;SDS011;1493;51.496;7.210;2024-01-15T10:04:10;17.37;;;10.50;;
2966;SDS011;1493;51.496;7.210;2024-01-15T10:06:37;14.83;;;10.90;;
2966;SDS011;1493;51.496;7.210;2024-01-15T10:09:07;15.97;;;10.40;;
2966;SDS011;1493;51.496;7.210;2024-01-15T10:11:34;16.27;;;11.57;;
2966;SDS011;1493;51.496;7.210;2024-01-15T10:14:04;12.97;;;9.80;;
2966;SDS011;1493;51.496;7.210;2024-01-15T10:16:32;17.43;;;10.90;;
2966;SDS011;1493;51.496;7.210;2024-01-15T10:18:58;15.43;;;11.53;;
2966;SDS011;1493;51.496;7.210;2024-01-15T10:21:25;15.43;;;11.57;;
2966;SDS011;1493;51.496;7.210;2024-01-15T10:23:52;14.50;;;10.50;;
2966;SDS011;1493;51.496;7.210;2024-01-15T10:26:25;13.90;;;11.10;;
2966;SDS011;1493;51.496;7.210;2024-01-15T10:28:55;15.33;;;10.90;;
2966;SDS011;1493;51.496;7.210;2024-01-15T10:31:21;14.90;;;11.00;;
2966;SDS011;1493;51.496;7.210;2024-01-15T10:33:48;12.30;;;10.80;;
2966;SDS011;1493;51.496;7.210;2024-01-15T10:36:15;12.90;;;11.13;;
2966;SDS011;1493;51.496;7.210;2024-01-15T10:38:43;16.40;;;11.40;;
2966;SDS011;1493;51.496;7.210;2024-01-15T10:41:10;16.40;;;11.73;;
2966;SDS011;1493;51.496;7.210;2024-01-15T10:43:38;13.87;;;11.00;;
2966;SDS011;1493;51.496;7.210;2024-01-15T10:46:06;13.33;;;10.73;;
2966;SDS011;1493;51.496;7.210;2024-01-15T10:48:33;14.73;;;9.63;;
2966;SDS011;1493;51.496;7.210;2024-01-15T10:51:01;11.97;;;9.33;;
2966;SDS011;1493;51.496;7.210;2024-01-15T10:53:35;13.97;;;9.83;;
2966;SDS011;1493;51.496;7.210;2024-01-15T10:56:05;13.47;;;10.20;;
2966;SDS011;1493;51.496;7.210;2024-01-15T10:58:36;11.73;;;9.57;;
2966;SDS011;1493;51.496;7.210;2024-01-15T11:01:07;14.20;;;10.30;;
2966;SDS011;1493;51.496;7.210;2024-01-15T11:03:39;12.97;;;9.47;;
2966;SDS011;1493;51.496;7.210;2024-01-15T11:06:15;14.63;;;10.70;;
2966;SDS011;1493;51.496;7.210;2024-01-15T11:08:44;14.40;;;11.07;;
2966;SDS011;1493;51.496;7.210;2024-01-15T11:11:23;14.53;;;9.70;;
2966;SDS011;1493;51.496;7.210;2024-01-15T11:13:53;14.93;;;10.67;;
2966;SDS011;1493;51.496;7.210;2024-01-15T11:16:26;13.87;;;9.10;;
2966;SDS011;1493;51.496;7.210;2024-01-15T11:19:19;12.67;;;8.80;;
2966;SDS011;1493;51.496;7.210;2024-01-15T11:21:46;16.20;;;10.37;;
2966;SDS011;1493;51.496;7.210;2024-01-15T11:24:32;12.40;;;8.83;;
2966;SDS011;1493;51.496;7.210;2024-01-15T11:27:01;10.43;;;8.30;;
2966;SDS011;1493;51.496;7.210;2024-01-15T11:29:29;14.87;;;9.83;;
2966;SDS011;1493;51.496;7.210;2024-01-15T11:31:58;15.73;;;10.13;;
2966;SDS011;1493;51.496;7.210;2024-01-15T11:37:27;13.57;;;9.30;;
2966;SDS011;1493;51.496;7.210;2024-01-15T11:39:55;17.00;;;8.10;;
2966;SDS011;1493;51.496;7.210;2024-01-15T11:42:22;9.50;;;7.30;;
2966;SDS011;1493;51.496;7.210;2024-01-15T11:44:49;9.97;;;7.27;;
2966;SDS011;1493;51.496;7.210;2024-01-15T11:47:21;16.03;;;8.37;;
2966;SDS011;1493;51.496;7.210;2024-01-15T11:50:14;10.33;;;7.17;;
2966;SDS011;1493;51.496;7.210;2024-01-15T11:52:41;10.70;;;6.60;;
2966;SDS011;1493;51.496;7.210;2024-01-15T11:55:17;7.70;;;6.43;;
2966;SDS011;1493;51.496;7.210;2024-01-15T11:57:49;7.27;;;6.53;;
2966;SDS011;1493;51.496;7.210;2024-01-15T12:00:17;6.10;;;5.03;;
2966;SDS011;1493;51.496;7.210;2024-01-15T12:02:46;8.70;;;5.13;;
2966;SDS011;1493;51.496;7.210;2024-01-15T12:05:14;6.70;;;6.03;;
2966;SDS011;1493;51.496;7.210;2024-01-15T12:07:42;7.03;;;5.33;;
2966;SDS011;1493;51.496;7.210;2024-01-15T12:10:10;11.40;;;7.30;;
2966;SDS011;1493;51.496;7.210;2024-01-15T12:12:44;15.00;;;7.57;;
2966;SDS011;1493;51.496;7.210;2024-01-15T12:15:24;7.63;;;5.60;;
2966;SDS011;1493;51.496;7.210;2024-01-15T12:17:53;10.13;;;5.33;;
2966;SDS011;1493;51.496;7.210;2024-01-15T12:20:22;6.47;;;5.17;;
2966;SDS011;1493;51.496;7.210;2024-01-15T12:22:50;8.83;;;6.47;;
2966;SDS011;1493;51.496;7.210;2024-01-15T12:25:16;7.90;;;6.30;;
2966;SDS011;1493;51.496;7.210;2024-01-15T12:27:43;7.93;;;6.80;;
2966;SDS011;1493;51.496;7.210;2024-01-15T12:30:11;8.27;;;6.67;;
2966;SDS011;1493;51.496;7.210;2024-01-15T12:32:40;8.10;;;6.50;;
2966;SDS011;1493;51.496;7.210;2024-01-15T12:35:09;8.60;;;6.20;;
2966;SDS011;1493;51.496;7.210;2024-01-15T12:37:36;6.70;;;5.70;;
2966;SDS011;1493;51.496;7.210;2024-01-15T12:40:04;7.87;;;6.43;;
2966;SDS011;1493;51.496;7.210;2024-01-15T12:42:32;10.00;;;7.33;;
2966;SDS011;1493;51.496;7.210;2024-01-15T12:44:59;10.10;;;6.53;;
2966;SDS011;1493;51.496;7.210;2024-01-15T12:47:26;8.70;;;5.40;;
2966;SDS011;1493;51.496;7.210;2024-01-15T12:49:53;7.10;;;5.13;;
2966;SDS011;1493;51.496;7.210;2024-01-15T12:52:22;9.33;;;5.97;;
2966;SDS011;1493;51.496;7.210;2024-01-15T12:54:51;6.77;;;5.43;;
2966;SDS011;1493;51.496;7.210;2024-01-15T12:57:18;10.00;;;5.70;;
2966;SDS011;1493;51.496;7.210;2024-01-15T12:59:45;7.83;;;5.00;;
2966;SDS011;1493;51.496;7.210;2024-01-15T13:02:12;8.20;;;6.27;;
2966;SDS011;1493;51.496;7.210;2024-01-15T13:04:39;5.53;;;5.00;;
2966;SDS011;1493;51.496;7.210;2024-01-15T13:07:09;5.63;;;4.90;;
2966;SDS011;1493;51.496;7.210;2024-01-15T13:09:37;5.50;;;5.00;;
2966;SDS011;1493;51.496;7.210;2024-01-15T13:12:04;6.83;;;5.60;;
2966;SDS011;1493;51.496;7.210;2024-01-15T13:14:31;7.00;;;5.70;;
2966;SDS011;1493;51.496;7.210;2024-01-15T13:16:58;7.47;;;5.70;;
2966;SDS011;1493;51.496;7.210;2024-01-15T13:19:27;10.63;;;6.00;;
2966;SDS011;1493;51.496;7.210;2024-01-15T13:21:54;5.60;;;5.10;;
2966;SDS011;1493;51.496;7.210;2024-01-15T13:24:23;7.70;;;4.47;;
2966;SDS011;1493;51.496;7.210;2024-01-15T13:26:51;5.97;;;5.10;;
2966;SDS011;1493;51.496;7.210;2024-01-15T13:29:18;8.40;;;4.77;;
2966;SDS011;1493;51.496;7.210;2024-01-15T13:31:45;5.23;;;4.10;;
2966;SDS011;1493;51.496;7.210;2024-01-15T13:34:12;6.17;;;4.60;;
2966;SDS011;1493;51.496;7.210;2024-01-15T13:36:39;7.37;;;5.70;;
2966;SDS011;1493;51.496;7.210;2024-01-15T13:39:06;5.10;;;4.40;;
2966;SDS011;1493;51.496;7.210;2024-01-15T13:41:34;5.73;;;4.10;;
2966;SDS011;1493;51.496;7.210;2024-01-15T13:44:02;6.13;;;3.40;;
2966;SDS011;1493;51.496;7.210;2024-01-15T13:46:29;5.40;;;3.70;;
2966;SDS011;1493;51.496;7.210;2024-01-15T13:48:56;4.73;;;3.03;;
2966;SDS011;1493;51.496;7.210;2024-01-15T13:51:23;7.27;;;3.27;;
2966;SDS011;1493;51.496;7.210;2024-01-15T13:53:50;6.77;;;3.20;;
2966;SDS011;1493;51.496;7.210;2024-01-15T13:56:18;4.67;;;2.90;;
2966;SDS011;1493;51.496;7.210;2024-01-15T13:58:45;4.50;;;2.70;;
2966;SDS011;1493;51.496;7.210;2024-01-15T14:01:14;3.43;;;2.40;;
2966;SDS011;1493;51.496;7.210;2024-01-15T14:03:42;4.30;;;2.40;;
2966;SDS011;1493;51.496;7.210;2024-01-15T14:06:09;6.47;;;2.73;;
2966;SDS011;1493;51.496;7.210;2024-01-15T14:08:36;3.97;;;2.83;;
2966;SDS011;1493;51.496;7.210;2024-01-15T14:11:03;8.93;;;3.53;;
2966;SDS011;1493;51.496;7.210;2024-01-15T14:13:31;10.43;;;4.90;;
2966;SDS011;1493;51.496;7.210;2024-01-15T14:15:58;4.73;;;3.43;;
2966;SDS011;1493;51.496;7.210;2024-01-15T14:18:26;10.30;;;5.33;;
2966;SDS011;1493;51.496;7.210;2024-01-15T14:20:53;7.27;;;4.83;;
2966;SDS011;1493;51.496;7.210;2024-01-15T14:23:19;6.17;;;4.93;;
2966;SDS011;1493;51.496;7.210;2024-01-15T14:25:47;9.57;;;6.07;;
2966;SDS011;1493;51.496;7.210;2024-01-15T14:28:13;9.90;;;6.50;;
2966;SDS011;1493;51.496;7.210;2024-01-15T14:30:40;10.40;;;5.63;;
2966;SDS011;1493;51.496;7.210;2024-01-15T14:33:07;7.50;;;6.47;;
2966;SDS011;1493;51.496;7.210;2024-01-15T14:35:35;8.17;;;6.20;;
2966;SDS011;1493;51.496;7.210;2024-01-15T14:38:02;7.10;;;5.77;;
2966;SDS011;1493;51.496;7.210;2024-01-15T14:40:31;17.60;;;8.83;;
2966;SDS011;1493;51.496;7.210;2024-01-15T14:42:58;9.67;;;7.10;;
2966;SDS011;1493;51.496;7.210;2024-01-15T14:45:27;11.87;;;5.57;;
2966;SDS011;1493;51.496;7.210;2024-01-15T14:47:55;7.07;;;5.37;;
2966;SDS011;1493;51.496;7.210;2024-01-15T14:50:23;8.07;;;4.80;;
2966;SDS011;1493;51.496;7.210;2024-01-15T14:52:51;7.27;;;4.30;;
2966;SDS011;1493;51.496;7.210;2024-01-15T14:55:18;11.13;;;4.70;;
2966;SDS011;1493;51.496;7.210;2024-01-15T14:57:48;6.30;;;3.30;;
2966;SDS011;1493;51.496;7.210;2024-01-15T15:00:15;4.20;;;3.23;;
2966;SDS011;1493;51.496;7.210;2024-01-15T15:02:42;4.37;;;3.13;;
2966;SDS011;1493;51.496;7.210;2024-01-15T15:05:11;8.20;;;4.10;;